• Join FlightAware (Why Join?)
  • Login
  • US Flag 
05:23AM EST


 

Airport Tracker/Info


-or-


 

Live Flight TrackerFlight Track Log ✈ N84NG ✈ 08-May-2013 ✈ 27K - KPWA

Flight Track Log - Related Links

Times and Time Zones

All times are in EDT time to prevent confusion due to time zone crossing. See the N84NG flight status page for this flight to view local times or setup timezone preferences in your user account.

Time Position Orientation Groundspeed Altitude Reporting Facility
EDT Latitude Longitude Course Direction KTS MPH feet Rate Location/Type
11:05AM 38.1864 -84.5553 260° West 234 269 4,200  Level Indianapolis Center
11:06AM 38.1697 -84.6453 257° West 247 284 8,200 3,360 Climbing Indianapolis Center
11:07AM 38.1564 -84.7494 261° West 286 329 11,200 2,400 Climbing Indianapolis Center
11:08AM 38.1433 -84.8644 262° West 326 375 13,200 2,160 Climbing Indianapolis Center
11:09AM 38.1286 -84.9925 262° West 362 417 15,700 2,340 Climbing Indianapolis Center
11:10AM 38.1246 -85.2613 260° West  Level FlightAware Approximate
11:10AM 38.1142 -85.1211 262° West 366 421 18,100  Level Indianapolis Center
11:11AM 38.0950 -85.2653 260° West 372 428 20,900 2,460 Climbing Indianapolis Center
11:12AM 38.0792 -85.3950 261° West 371 427 23,200 1,980 Climbing Indianapolis Center
11:13AM 38.0631 -85.5275 261° West 378 435 25,000 1,380 Climbing Indianapolis Center
11:14AM 38.0458 -85.6706 261° West 405 466 26,100 1,500 Climbing Indianapolis Center
11:15AM 38.0269 -85.8128 260° West 409 471 28,100 1,920 Climbing Indianapolis Center
11:16AM 38.0108 -85.9539 262° West 404 465 30,100 1,680 Climbing Indianapolis Center
11:17AM 37.9922 -86.0944 261° West 403 464 31,600 1,440 Climbing Indianapolis Center
11:18AM 37.9706 -86.2658 261° West 407 468 33,100 1,200 Climbing Indianapolis Center
11:19AM 37.9508 -86.4106 260° West 415 478 34,100 960 Climbing Indianapolis Center
11:20AM 37.9328 -86.5603 261° West 423 487 35,100 960 Climbing Indianapolis Center
11:21AM 37.9114 -86.7100 260° West 427 491 36,200 960 Climbing Indianapolis Center
11:22AM 37.8917 -86.8578 260° West 424 488 37,200 840 Climbing Indianapolis Center
11:23AM 37.8719 -87.0033 260° West 418 481 38,000 360 Climbing Indianapolis Center
11:24AM 37.8514 -87.1514 260° West 421 484 38,000  Level Indianapolis Center
11:25AM 37.8294 -87.3042 260° West 433 498 38,000  Level Indianapolis Center
11:26AM 37.8078 -87.4606 260° West 445 512 38,000  Level Indianapolis Center
11:27AM 37.7853 -87.6183 260° West 451 519 38,000  Level Indianapolis Center
11:29AM 37.7353 -87.9656 260° West 453 521 38,000  Level Kansas City Center
11:31AM 37.7122 -88.1214 259° West 452 520 38,000  Level Kansas City Center
11:31AM 37.6897 -88.2778 260° West 449 517 38,000  Level Indianapolis Center
11:32AM 37.6661 -88.4339 259° West 451 519 38,000  Level Indianapolis Center
11:33AM 37.6431 -88.5906 260° West 453 521 38,000 120 Level Indianapolis Center
11:34AM 37.6194 -88.7461 259° West 451 519 38,300 600 Climbing Indianapolis Center
11:35AM 37.5961 -88.8964 259° West 440 506 39,300 780 Climbing Indianapolis Center
11:37AM 37.5742 -89.0425 259° West 426 490 40,000 300 Climbing Indianapolis Center
11:38AM 37.5503 -89.1881 258° West 424 488 40,000  Level Indianapolis Center
11:39AM 37.5222 -89.3675 259° West 433 498 40,000  Level Indianapolis Center
11:40AM 37.4997 -89.5167 259° West 434 499 40,000  Level Indianapolis Center
11:41AM 37.4750 -89.6656 258° West 433 498 40,000  Level Indianapolis Center
11:42AM 37.4483 -89.8358 259° West 435 501 40,000  Level Kansas City Center
11:43AM 37.4192 -90.0139 258° West 435 501 40,000  Level Kansas City Center
11:44AM 37.3936 -90.1672 258° West 440 506 40,000  Level Kansas City Center
11:45AM 37.3689 -90.3147 258° West 434 499 40,000  Level Kansas City Center
11:46AM 37.3439 -90.4633 258° West 434 499 40,000  Level Kansas City Center
11:47AM 37.3192 -90.6072 258° West 432 497 40,000  Level Kansas City Center
11:48AM 37.2908 -90.7731 258° West 427 491 40,000  Level Kansas City Center
11:49AM 37.2681 -90.9194 259° West 424 488 40,000  Level Kansas City Center
11:50AM 37.2414 -91.0672 257° West 429 494 40,000  Level Kansas City Center
11:51AM 37.2139 -91.2167 257° West 434 499 40,000  Level Kansas City Center
11:52AM 37.1886 -91.3628 258° West 430 495 40,000  Level Kansas City Center
11:53AM 37.1625 -91.5100 257° West 430 495 40,000  Level Kansas City Center
11:54AM 37.1361 -91.6592 258° West 433 498 40,000  Level Kansas City Center
11:55AM 37.1042 -91.8361 257° West 433 498 40,000  Level Kansas City Center
11:56AM 37.0769 -91.9844 257° West 433 498 40,000  Level Kansas City Center
11:57AM 37.0503 -92.1319 257° West 433 498 40,000  Level Kansas City Center
11:58AM 37.0231 -92.2811 257° West 435 501 40,000  Level Kansas City Center
11:59AM 36.9950 -92.4289 257° West 435 501 40,000  Level Kansas City Center
12:00PM 36.9683 -92.5753 257° West 432 497 40,000  Level Kansas City Center
12:01PM 36.9400 -92.7219 256° West 431 496 40,000  Level Kansas City Center
12:03PM 36.9114 -92.8703 256° West 434 499 40,000  Level Kansas City Center
12:04PM 36.8772 -93.0517 257° West 441 507 40,000  Level Kansas City Center
12:05PM 36.8533 -93.1783 257° West 445 512 40,000  Level Kansas City Center
12:06PM 36.8186 -93.3561 256° West 443 510 40,000  Level Kansas City Center
12:07PM 36.7897 -93.5072 257° West 447 514 40,000  Level Kansas City Center
12:08PM 36.7608 -93.6539 256° West 442 509 40,000  Level Kansas City Center
12:09PM 36.7275 -93.8208 256° West 440 506 40,000  Level Kansas City Center
12:10PM 36.6978 -93.9694 256° West 441 507 40,000 -60 Level Kansas City Center
12:11PM 36.6672 -94.1161 255° West 440 506 39,900 -600 Descending Kansas City Center
12:12PM 36.6397 -94.2553 256° West 423 487 38,800 -1,020 Descending Kansas City Center
12:13PM 36.6122 -94.3878 256° West 403 464 37,900 -1,020 Descending Kansas City Center
12:14PM 36.5853 -94.5208 256° West 398 458 36,800 -1,080 Descending Kansas City Center
12:15PM 36.5578 -94.6542 256° West 397 457 35,800 -900 Descending Kansas City Center
12:16PM 36.5233 -94.8183 255° West 405 466 35,000 -420 Descending Kansas City Center
12:17PM 36.4944 -94.9594 256° West 417 480 35,000  Level Kansas City Center
12:18PM 36.4639 -95.1031 255° West 426 490 35,000 -420 Level Kansas City Center
12:19PM 36.4358 -95.2339 255° West 428 493 34,200 -540 Descending Kansas City Center
12:20PM 36.3983 -95.4067 255° West 432 497 34,000 -120 Descending Kansas City Center
12:21PM 36.3681 -95.5511 255° West 433 498 34,000  Level Kansas City Center
12:22PM 36.3361 -95.6939 255° West 432 497 34,000  Level Kansas City Center
12:23PM 36.3053 -95.8356 255° West 432 497 34,000  Level Kansas City Center
12:24PM 36.2739 -95.9789 255° West 431 496 34,000 -660 Level Kansas City Center
12:25PM 36.2425 -96.1206 255° West 429 494 32,700 -1,860 Descending Kansas City Center
12:26PM 36.2064 -96.2844 255° West 419 482 30,200 -2,280 Descending Kansas City Center
12:27PM 36.1731 -96.4164 253° West 410 472 28,000 -2,280 Descending Kansas City Center
12:28PM 36.1117 -96.5331 237° Southwest 406 467 25,600 -2,400 Descending Kansas City Center
12:29PM 36.0444 -96.6419 233° Southwest 401 461 23,100 -2,280 Descending Kansas City Center
12:30PM 35.9767 -96.7469 231° Southwest 398 458 20,900 -2,280 Descending Kansas City Center
12:31PM 35.9147 -96.8431 232° Southwest 378 435 18,400 -2,460 Descending Kansas City Center
12:32PM 35.8650 -96.9681 244° Southwest 348 400 15,900 -2,400 Descending Kansas City Center
12:33PM 35.8264 -97.0689 245° Southwest 334 384 13,500 -2,460 Descending Kansas City Center
12:34PM 35.7897 -97.1681 246° West 310 357 11,100 -2,580 Descending Fort Worth Center
12:35PM 35.7628 -97.2500 248° West 277 319 8,800 -2,400 Descending Fort Worth Center
12:36PM 35.7336 -97.3292 246° West 247 284 6,500 -1,920 Descending Fort Worth Center
12:37PM 35.7064 -97.4086 247° West 243 280 5,000 -1,320 Descending Fort Worth Center
12:38PM 35.6836 -97.4725 246° West 237 273 4,000 -540 Descending Fort Worth Center
12:39PM 35.6606 -97.5414 248° West 213 245 4,000 -360 Level Fort Worth Center
12:40PM 35.6417 -97.5975 248° West 189 217 3,400 -780 Descending Fort Worth Center
12:41PM 35.6186 -97.6458 240° Southwest 159 183 2,600 -780 Descending Fort Worth Center
12:42PM 35.5792 -97.6483 183° South 140 161 1,900 -720 Descending Fort Worth Center